sensor_id;sensor_type;location;lat;lon;timestamp;P1;durP1;ratioP1;P2;durP2;ratioP2
12788;SDS011;6458;42.710;23.192;2023-05-24T00:00:46;8.17;;;6.30;;
12788;SDS011;6458;42.710;23.192;2023-05-24T00:03:17;6.33;;;5.83;;
12788;SDS011;6458;42.710;23.192;2023-05-24T00:05:45;6.50;;;6.03;;
12788;SDS011;6458;42.710;23.192;2023-05-24T00:08:12;7.00;;;6.00;;
12788;SDS011;6458;42.710;23.192;2023-05-24T00:10:40;6.63;;;6.07;;
12788;SDS011;6458;42.710;23.192;2023-05-24T00:13:06;8.93;;;5.87;;
12788;SDS011;6458;42.710;23.192;2023-05-24T00:15:34;6.70;;;6.20;;
12788;SDS011;6458;42.710;23.192;2023-05-24T00:18:01;7.20;;;6.50;;
12788;SDS011;6458;42.710;23.192;2023-05-24T00:20:28;6.97;;;6.23;;
12788;SDS011;6458;42.710;23.192;2023-05-24T00:22:55;6.37;;;5.60;;
12788;SDS011;6458;42.710;23.192;2023-05-24T00:25:22;7.37;;;6.13;;
12788;SDS011;6458;42.710;23.192;2023-05-24T00:27:49;6.53;;;5.90;;
12788;SDS011;6458;42.710;23.192;2023-05-24T00:30:15;6.57;;;6.00;;
12788;SDS011;6458;42.710;23.192;2023-05-24T00:32:44;6.50;;;5.83;;
12788;SDS011;6458;42.710;23.192;2023-05-24T00:35:10;6.73;;;5.87;;
12788;SDS011;6458;42.710;23.192;2023-05-24T00:37:40;8.13;;;5.73;;
12788;SDS011;6458;42.710;23.192;2023-05-24T00:40:09;7.77;;;6.07;;
12788;SDS011;6458;42.710;23.192;2023-05-24T00:42:36;7.10;;;6.40;;
12788;SDS011;6458;42.710;23.192;2023-05-24T00:45:03;6.57;;;5.97;;
12788;SDS011;6458;42.710;23.192;2023-05-24T00:47:30;7.20;;;6.60;;
12788;SDS011;6458;42.710;23.192;2023-05-24T00:49:59;7.13;;;6.20;;
12788;SDS011;6458;42.710;23.192;2023-05-24T00:52:25;6.10;;;5.60;;
12788;SDS011;6458;42.710;23.192;2023-05-24T00:54:52;6.83;;;6.23;;
12788;SDS011;6458;42.710;23.192;2023-05-24T00:57:19;6.43;;;5.83;;
12788;SDS011;6458;42.710;23.192;2023-05-24T00:59:48;6.70;;;6.10;;
12788;SDS011;6458;42.710;23.192;2023-05-24T01:02:14;6.30;;;5.70;;
12788;SDS011;6458;42.710;23.192;2023-05-24T01:04:42;6.03;;;5.53;;
12788;SDS011;6458;42.710;23.192;2023-05-24T01:07:12;5.97;;;5.47;;
12788;SDS011;6458;42.710;23.192;2023-05-24T01:09:46;7.37;;;6.03;;
12788;SDS011;6458;42.710;23.192;2023-05-24T01:12:19;7.73;;;5.40;;
12788;SDS011;6458;42.710;23.192;2023-05-24T01:14:49;5.83;;;5.33;;
12788;SDS011;6458;42.710;23.192;2023-05-24T01:17:20;6.47;;;5.87;;
12788;SDS011;6458;42.710;23.192;2023-05-24T01:19:55;6.23;;;5.70;;
12788;SDS011;6458;42.710;23.192;2023-05-24T01:25:10;5.93;;;5.20;;
12788;SDS011;6458;42.710;23.192;2023-05-24T01:27:39;5.77;;;5.27;;
12788;SDS011;6458;42.710;23.192;2023-05-24T01:30:07;6.30;;;5.70;;
12788;SDS011;6458;42.710;23.192;2023-05-24T01:32:34;10.33;;;5.67;;
12788;SDS011;6458;42.710;23.192;2023-05-24T01:35:02;6.50;;;5.90;;
12788;SDS011;6458;42.710;23.192;2023-05-24T01:37:29;6.47;;;5.77;;
12788;SDS011;6458;42.710;23.192;2023-05-24T01:39:56;6.23;;;5.60;;
12788;SDS011;6458;42.710;23.192;2023-05-24T01:42:23;5.70;;;5.30;;
12788;SDS011;6458;42.710;23.192;2023-05-24T01:44:56;6.10;;;5.47;;
12788;SDS011;6458;42.710;23.192;2023-05-24T01:47:25;5.80;;;5.30;;
12788;SDS011;6458;42.710;23.192;2023-05-24T01:49:56;6.07;;;5.53;;
12788;SDS011;6458;42.710;23.192;2023-05-24T01:52:26;6.40;;;5.80;;
12788;SDS011;6458;42.710;23.192;2023-05-24T01:54:54;5.70;;;5.20;;
12788;SDS011;6458;42.710;23.192;2023-05-24T01:57:21;5.70;;;5.20;;
12788;SDS011;6458;42.710;23.192;2023-05-24T01:59:49;7.43;;;5.83;;
12788;SDS011;6458;42.710;23.192;2023-05-24T02:02:17;6.10;;;5.50;;
12788;SDS011;6458;42.710;23.192;2023-05-24T02:04:44;6.07;;;5.57;;
12788;SDS011;6458;42.710;23.192;2023-05-24T02:07:11;7.40;;;6.20;;
12788;SDS011;6458;42.710;23.192;2023-05-24T02:09:37;9.67;;;5.77;;
12788;SDS011;6458;42.710;23.192;2023-05-24T02:12:04;6.53;;;5.93;;
12788;SDS011;6458;42.710;23.192;2023-05-24T02:14:31;8.43;;;6.73;;
12788;SDS011;6458;42.710;23.192;2023-05-24T02:16:58;6.60;;;6.10;;
12788;SDS011;6458;42.710;23.192;2023-05-24T02:19:28;6.77;;;6.10;;
12788;SDS011;6458;42.710;23.192;2023-05-24T02:21:55;6.83;;;5.97;;
12788;SDS011;6458;42.710;23.192;2023-05-24T02:24:21;7.00;;;6.40;;
12788;SDS011;6458;42.710;23.192;2023-05-24T02:26:48;9.00;;;6.70;;
12788;SDS011;6458;42.710;23.192;2023-05-24T02:29:14;7.10;;;6.47;;
12788;SDS011;6458;42.710;23.192;2023-05-24T02:31:41;6.90;;;6.27;;
12788;SDS011;6458;42.710;23.192;2023-05-24T02:34:08;6.90;;;6.30;;
12788;SDS011;6458;42.710;23.192;2023-05-24T02:36:36;6.53;;;6.03;;
12788;SDS011;6458;42.710;23.192;2023-05-24T02:39:02;6.83;;;6.17;;
12788;SDS011;6458;42.710;23.192;2023-05-24T02:41:30;7.60;;;6.03;;
12788;SDS011;6458;42.710;23.192;2023-05-24T02:43:56;6.23;;;5.70;;
12788;SDS011;6458;42.710;23.192;2023-05-24T02:46:23;8.13;;;6.63;;
12788;SDS011;6458;42.710;23.192;2023-05-24T02:48:50;7.00;;;6.37;;
12788;SDS011;6458;42.710;23.192;2023-05-24T02:51:17;6.87;;;5.67;;
12788;SDS011;6458;42.710;23.192;2023-05-24T02:53:45;8.73;;;5.73;;
12788;SDS011;6458;42.710;23.192;2023-05-24T02:56:12;6.37;;;5.80;;
12788;SDS011;6458;42.710;23.192;2023-05-24T02:58:41;6.73;;;6.13;;
12788;SDS011;6458;42.710;23.192;2023-05-24T03:01:09;6.60;;;6.00;;
12788;SDS011;6458;42.710;23.192;2023-05-24T03:03:36;6.77;;;6.03;;
12788;SDS011;6458;42.710;23.192;2023-05-24T03:06:03;7.07;;;6.47;;
12788;SDS011;6458;42.710;23.192;2023-05-24T03:08:31;6.90;;;6.30;;
12788;SDS011;6458;42.710;23.192;2023-05-24T03:10:59;7.57;;;6.77;;
12788;SDS011;6458;42.710;23.192;2023-05-24T03:13:26;7.53;;;6.20;;
12788;SDS011;6458;42.710;23.192;2023-05-24T03:15:52;6.50;;;6.00;;
12788;SDS011;6458;42.710;23.192;2023-05-24T03:18:19;7.53;;;6.53;;
12788;SDS011;6458;42.710;23.192;2023-05-24T03:20:46;7.13;;;5.90;;
12788;SDS011;6458;42.710;23.192;2023-05-24T03:23:12;6.37;;;5.97;;
12788;SDS011;6458;42.710;23.192;2023-05-24T03:25:40;6.63;;;6.10;;
12788;SDS011;6458;42.710;23.192;2023-05-24T03:28:08;6.57;;;5.93;;
12788;SDS011;6458;42.710;23.192;2023-05-24T03:30:35;6.37;;;5.87;;
12788;SDS011;6458;42.710;23.192;2023-05-24T03:33:02;6.10;;;5.50;;
12788;SDS011;6458;42.710;23.192;2023-05-24T03:35:28;6.30;;;5.63;;
12788;SDS011;6458;42.710;23.192;2023-05-24T03:37:55;5.77;;;5.37;;
12788;SDS011;6458;42.710;23.192;2023-05-24T03:40:22;6.20;;;5.60;;
12788;SDS011;6458;42.710;23.192;2023-05-24T03:42:50;7.50;;;6.70;;
12788;SDS011;6458;42.710;23.192;2023-05-24T03:45:18;6.93;;;6.33;;
12788;SDS011;6458;42.710;23.192;2023-05-24T03:47:45;8.27;;;6.50;;
12788;SDS011;6458;42.710;23.192;2023-05-24T03:50:12;13.40;;;10.60;;
12788;SDS011;6458;42.710;23.192;2023-05-24T03:52:40;9.97;;;7.93;;
12788;SDS011;6458;42.710;23.192;2023-05-24T03:55:07;7.60;;;6.90;;
12788;SDS011;6458;42.710;23.192;2023-05-24T03:57:34;9.87;;;6.40;;
12788;SDS011;6458;42.710;23.192;2023-05-24T04:00:00;6.17;;;5.53;;
12788;SDS011;6458;42.710;23.192;2023-05-24T04:02:32;5.97;;;5.47;;
12788;SDS011;6458;42.710;23.192;2023-05-24T04:04:59;6.63;;;6.03;;
12788;SDS011;6458;42.710;23.192;2023-05-24T04:07:25;6.93;;;6.33;;
12788;SDS011;6458;42.710;23.192;2023-05-24T04:10:09;6.10;;;5.53;;
12788;SDS011;6458;42.710;23.192;2023-05-24T04:12:36;7.53;;;5.77;;
12788;SDS011;6458;42.710;23.192;2023-05-24T04:15:04;6.80;;;6.20;;
12788;SDS011;6458;42.710;23.192;2023-05-24T04:17:31;7.17;;;5.70;;
12788;SDS011;6458;42.710;23.192;2023-05-24T04:19:59;6.10;;;5.60;;
12788;SDS011;6458;42.710;23.192;2023-05-24T04:22:25;6.73;;;6.13;;
12788;SDS011;6458;42.710;23.192;2023-05-24T04:24:52;5.90;;;5.47;;
12788;SDS011;6458;42.710;23.192;2023-05-24T04:27:20;6.40;;;5.90;;
12788;SDS011;6458;42.710;23.192;2023-05-24T04:29:50;6.60;;;6.10;;
12788;SDS011;6458;42.710;23.192;2023-05-24T04:32:17;7.10;;;6.40;;
12788;SDS011;6458;42.710;23.192;2023-05-24T04:34:44;6.30;;;5.77;;
12788;SDS011;6458;42.710;23.192;2023-05-24T04:37:11;6.00;;;5.60;;
12788;SDS011;6458;42.710;23.192;2023-05-24T04:39:41;6.30;;;5.77;;
12788;SDS011;6458;42.710;23.192;2023-05-24T04:42:08;6.40;;;5.70;;
12788;SDS011;6458;42.710;23.192;2023-05-24T04:44:36;6.53;;;5.90;;
12788;SDS011;6458;42.710;23.192;2023-05-24T04:47:04;5.93;;;5.43;;
12788;SDS011;6458;42.710;23.192;2023-05-24T04:49:31;6.03;;;5.47;;
12788;SDS011;6458;42.710;23.192;2023-05-24T04:51:58;5.83;;;5.43;;
12788;SDS011;6458;42.710;23.192;2023-05-24T04:54:24;6.03;;;5.63;;
12788;SDS011;6458;42.710;23.192;2023-05-24T04:56:51;6.50;;;5.90;;
12788;SDS011;6458;42.710;23.192;2023-05-24T04:59:18;6.47;;;5.97;;
12788;SDS011;6458;42.710;23.192;2023-05-24T05:01:46;7.37;;;6.77;;
12788;SDS011;6458;42.710;23.192;2023-05-24T05:04:12;7.90;;;7.20;;
12788;SDS011;6458;42.710;23.192;2023-05-24T05:06:39;7.50;;;6.77;;
12788;SDS011;6458;42.710;23.192;2023-05-24T05:09:08;8.83;;;7.07;;
12788;SDS011;6458;42.710;23.192;2023-05-24T05:11:37;7.10;;;6.50;;
12788;SDS011;6458;42.710;23.192;2023-05-24T05:14:04;7.37;;;6.77;;
12788;SDS011;6458;42.710;23.192;2023-05-24T05:16:33;7.87;;;7.20;;
12788;SDS011;6458;42.710;23.192;2023-05-24T05:19:02;7.60;;;6.93;;
12788;SDS011;6458;42.710;23.192;2023-05-24T05:21:30;7.60;;;6.90;;
12788;SDS011;6458;42.710;23.192;2023-05-24T05:23:58;7.10;;;6.50;;
12788;SDS011;6458;42.710;23.192;2023-05-24T05:26:24;6.93;;;6.43;;
12788;SDS011;6458;42.710;23.192;2023-05-24T05:28:51;7.20;;;6.70;;
12788;SDS011;6458;42.710;23.192;2023-05-24T05:31:18;8.33;;;6.93;;
12788;SDS011;6458;42.710;23.192;2023-05-24T05:33:45;7.20;;;6.70;;
12788;SDS011;6458;42.710;23.192;2023-05-24T05:36:13;6.57;;;6.17;;
12788;SDS011;6458;42.710;23.192;2023-05-24T05:38:50;7.20;;;6.60;;
12788;SDS011;6458;42.710;23.192;2023-05-24T05:41:19;8.00;;;7.20;;
12788;SDS011;6458;42.710;23.192;2023-05-24T05:43:46;7.60;;;7.10;;
12788;SDS011;6458;42.710;23.192;2023-05-24T05:46:12;7.90;;;7.20;;
12788;SDS011;6458;42.710;23.192;2023-05-24T05:48:40;8.90;;;8.00;;
12788;SDS011;6458;42.710;23.192;2023-05-24T05:51:06;8.87;;;7.93;;
12788;SDS011;6458;42.710;23.192;2023-05-24T05:53:34;8.70;;;7.93;;
12788;SDS011;6458;42.710;23.192;2023-05-24T05:56:01;11.30;;;8.23;;
12788;SDS011;6458;42.710;23.192;2023-05-24T05:58:27;9.87;;;8.97;;
12788;SDS011;6458;42.710;23.192;2023-05-24T06:00:54;8.83;;;8.00;;
12788;SDS011;6458;42.710;23.192;2023-05-24T06:03:21;8.53;;;7.70;;
12788;SDS011;6458;42.710;23.192;2023-05-24T06:05:47;9.30;;;8.50;;
12788;SDS011;6458;42.710;23.192;2023-05-24T06:08:14;9.43;;;8.53;;
12788;SDS011;6458;42.710;23.192;2023-05-24T06:10:42;8.80;;;8.10;;
12788;SDS011;6458;42.710;23.192;2023-05-24T06:13:09;9.63;;;8.10;;
12788;SDS011;6458;42.710;23.192;2023-05-24T06:15:36;9.83;;;8.80;;
12788;SDS011;6458;42.710;23.192;2023-05-24T06:18:02;10.53;;;8.20;;
12788;SDS011;6458;42.710;23.192;2023-05-24T06:20:29;9.73;;;8.83;;
12788;SDS011;6458;42.710;23.192;2023-05-24T06:22:55;10.47;;;9.17;;
12788;SDS011;6458;42.710;23.192;2023-05-24T06:25:23;9.20;;;7.83;;
12788;SDS011;6458;42.710;23.192;2023-05-24T06:27:51;11.53;;;8.47;;
12788;SDS011;6458;42.710;23.192;2023-05-24T06:30:18;8.10;;;7.30;;
12788;SDS011;6458;42.710;23.192;2023-05-24T06:32:45;9.27;;;8.37;;
12788;SDS011;6458;42.710;23.192;2023-05-24T06:35:12;8.70;;;7.90;;
12788;SDS011;6458;42.710;23.192;2023-05-24T06:37:39;9.80;;;9.00;;
12788;SDS011;6458;42.710;23.192;2023-05-24T06:40:05;7.90;;;7.20;;
12788;SDS011;6458;42.710;23.192;2023-05-24T06:42:33;8.47;;;7.77;;
12788;SDS011;6458;42.710;23.192;2023-05-24T06:45:02;9.30;;;7.80;;
12788;SDS011;6458;42.710;23.192;2023-05-24T06:47:28;8.47;;;7.67;;
12788;SDS011;6458;42.710;23.192;2023-05-24T06:49:55;7.50;;;6.77;;
12788;SDS011;6458;42.710;23.192;2023-05-24T06:52:22;8.17;;;7.47;;
12788;SDS011;6458;42.710;23.192;2023-05-24T06:54:49;9.83;;;8.90;;
12788;SDS011;6458;42.710;23.192;2023-05-24T06:57:16;11.00;;;8.20;;
12788;SDS011;6458;42.710;23.192;2023-05-24T06:59:42;15.27;;;8.97;;
12788;SDS011;6458;42.710;23.192;2023-05-24T07:02:11;9.40;;;7.90;;
12788;SDS011;6458;42.710;23.192;2023-05-24T07:04:37;9.23;;;8.43;;
12788;SDS011;6458;42.710;23.192;2023-05-24T07:07:05;9.17;;;8.27;;
12788;SDS011;6458;42.710;23.192;2023-05-24T07:09:32;9.37;;;7.40;;
12788;SDS011;6458;42.710;23.192;2023-05-24T07:11:58;8.07;;;6.90;;
12788;SDS011;6458;42.710;23.192;2023-05-24T07:14:29;7.13;;;6.50;;
12788;SDS011;6458;42.710;23.192;2023-05-24T07:17:02;7.73;;;6.70;;
12788;SDS011;6458;42.710;23.192;2023-05-24T07:19:30;6.77;;;6.27;;
12788;SDS011;6458;42.710;23.192;2023-05-24T07:21:58;7.67;;;6.23;;
12788;SDS011;6458;42.710;23.192;2023-05-24T07:24:24;9.90;;;7.23;;
12788;SDS011;6458;42.710;23.192;2023-05-24T07:26:51;7.97;;;7.27;;
12788;SDS011;6458;42.710;23.192;2023-05-24T07:29:18;8.17;;;7.20;;
12788;SDS011;6458;42.710;23.192;2023-05-24T07:31:45;7.27;;;6.67;;
12788;SDS011;6458;42.710;23.192;2023-05-24T07:34:12;8.03;;;5.73;;
12788;SDS011;6458;42.710;23.192;2023-05-24T07:36:40;6.13;;;5.67;;
12788;SDS011;6458;42.710;23.192;2023-05-24T07:39:07;8.23;;;5.83;;
12788;SDS011;6458;42.710;23.192;2023-05-24T07:41:34;7.63;;;5.40;;
12788;SDS011;6458;42.710;23.192;2023-05-24T07:44:02;6.17;;;5.67;;
12788;SDS011;6458;42.710;23.192;2023-05-24T07:46:28;5.43;;;5.03;;
12788;SDS011;6458;42.710;23.192;2023-05-24T07:48:55;6.00;;;5.50;;
12788;SDS011;6458;42.710;23.192;2023-05-24T07:51:22;8.90;;;5.60;;
12788;SDS011;6458;42.710;23.192;2023-05-24T07:53:49;6.80;;;6.10;;
12788;SDS011;6458;42.710;23.192;2023-05-24T07:56:16;6.53;;;5.90;;
12788;SDS011;6458;42.710;23.192;2023-05-24T07:58:43;5.90;;;5.50;;
12788;SDS011;6458;42.710;23.192;2023-05-24T08:01:10;7.27;;;5.93;;
12788;SDS011;6458;42.710;23.192;2023-05-24T08:03:37;6.00;;;5.60;;
12788;SDS011;6458;42.710;23.192;2023-05-24T08:06:04;5.20;;;4.90;;
12788;SDS011;6458;42.710;23.192;2023-05-24T08:08:31;5.50;;;5.10;;
12788;SDS011;6458;42.710;23.192;2023-05-24T08:10:59;5.03;;;4.73;;
12788;SDS011;6458;42.710;23.192;2023-05-24T08:13:26;5.23;;;4.90;;
12788;SDS011;6458;42.710;23.192;2023-05-24T08:15:52;5.40;;;4.87;;
12788;SDS011;6458;42.710;23.192;2023-05-24T08:18:19;4.90;;;4.63;;
12788;SDS011;6458;42.710;23.192;2023-05-24T08:20:46;5.80;;;5.20;;
12788;SDS011;6458;42.710;23.192;2023-05-24T08:23:13;5.80;;;4.60;;
12788;SDS011;6458;42.710;23.192;2023-05-24T08:25:39;5.23;;;4.83;;
12788;SDS011;6458;42.710;23.192;2023-05-24T08:28:07;4.67;;;4.37;;
12788;SDS011;6458;42.710;23.192;2023-05-24T08:30:35;5.03;;;4.63;;
12788;SDS011;6458;42.710;23.192;2023-05-24T08:33:01;4.70;;;4.30;;
12788;SDS011;6458;42.710;23.192;2023-05-24T08:35:28;5.20;;;4.20;;
12788;SDS011;6458;42.710;23.192;2023-05-24T08:37:55;4.80;;;4.40;;
12788;SDS011;6458;42.710;23.192;2023-05-24T08:40:21;4.97;;;4.63;;
12788;SDS011;6458;42.710;23.192;2023-05-24T08:42:49;4.50;;;4.20;;
12788;SDS011;6458;42.710;23.192;2023-05-24T08:45:20;3.60;;;3.30;;
12788;SDS011;6458;42.710;23.192;2023-05-24T08:47:47;3.43;;;3.23;;
12788;SDS011;6458;42.710;23.192;2023-05-24T08:50:15;4.00;;;3.67;;
12788;SDS011;6458;42.710;23.192;2023-05-24T08:52:42;4.60;;;4.20;;
12788;SDS011;6458;42.710;23.192;2023-05-24T08:55:09;4.63;;;4.10;;
12788;SDS011;6458;42.710;23.192;2023-05-24T08:57:36;4.90;;;3.50;;
12788;SDS011;6458;42.710;23.192;2023-05-24T09:00:05;4.17;;;3.80;;
12788;SDS011;6458;42.710;23.192;2023-05-24T09:02:37;4.60;;;4.20;;
12788;SDS011;6458;42.710;23.192;2023-05-24T09:05:04;5.33;;;3.73;;
12788;SDS011;6458;42.710;23.192;2023-05-24T09:07:33;3.97;;;3.77;;
12788;SDS011;6458;42.710;23.192;2023-05-24T09:10:02;5.97;;;3.80;;
12788;SDS011;6458;42.710;23.192;2023-05-24T09:12:30;4.90;;;4.27;;
12788;SDS011;6458;42.710;23.192;2023-05-24T09:14:57;4.47;;;4.17;;
12788;SDS011;6458;42.710;23.192;2023-05-24T09:17:24;4.43;;;4.03;;
12788;SDS011;6458;42.710;23.192;2023-05-24T09:19:52;4.70;;;4.23;;
12788;SDS011;6458;42.710;23.192;2023-05-24T09:22:19;4.90;;;4.50;;
12788;SDS011;6458;42.710;23.192;2023-05-24T09:24:50;4.87;;;4.23;;
12788;SDS011;6458;42.710;23.192;2023-05-24T09:27:17;4.30;;;3.90;;
12788;SDS011;6458;42.710;23.192;2023-05-24T09:29:45;5.73;;;4.43;;
12788;SDS011;6458;42.710;23.192;2023-05-24T09:32:13;4.83;;;4.37;;
12788;SDS011;6458;42.710;23.192;2023-05-24T09:34:40;4.10;;;3.90;;
12788;SDS011;6458;42.710;23.192;2023-05-24T09:37:09;5.33;;;4.87;;
12788;SDS011;6458;42.710;23.192;2023-05-24T09:39:38;4.40;;;4.00;;
12788;SDS011;6458;42.710;23.192;2023-05-24T09:42:05;5.20;;;4.33;;
12788;SDS011;6458;42.710;23.192;2023-05-24T09:44:31;4.63;;;4.23;;
12788;SDS011;6458;42.710;23.192;2023-05-24T09:47:00;4.60;;;4.20;;
12788;SDS011;6458;42.710;23.192;2023-05-24T09:49:27;4.37;;;4.07;;
12788;SDS011;6458;42.710;23.192;2023-05-24T09:51:53;4.83;;;4.40;;
12788;SDS011;6458;42.710;23.192;2023-05-24T09:54:22;5.13;;;4.60;;
12788;SDS011;6458;42.710;23.192;2023-05-24T09:56:50;4.63;;;4.30;;
12788;SDS011;6458;42.710;23.192;2023-05-24T09:59:16;4.50;;;4.20;;
12788;SDS011;6458;42.710;23.192;2023-05-24T10:01:44;5.27;;;4.13;;
12788;SDS011;6458;42.710;23.192;2023-05-24T10:04:11;4.73;;;4.43;;
12788;SDS011;6458;42.710;23.192;2023-05-24T10:06:38;5.10;;;4.70;;
12788;SDS011;6458;42.710;23.192;2023-05-24T10:09:04;5.00;;;4.27;;
12788;SDS011;6458;42.710;23.192;2023-05-24T10:11:35;4.40;;;4.10;;
12788;SDS011;6458;42.710;23.192;2023-05-24T10:14:03;4.20;;;3.80;;
12788;SDS011;6458;42.710;23.192;2023-05-24T10:16:30;3.90;;;3.77;;
12788;SDS011;6458;42.710;23.192;2023-05-24T10:18:56;3.87;;;3.67;;
12788;SDS011;6458;42.710;23.192;2023-05-24T10:21:23;4.23;;;3.93;;
12788;SDS011;6458;42.710;23.192;2023-05-24T10:23:51;4.10;;;3.80;;
12788;SDS011;6458;42.710;23.192;2023-05-24T10:26:23;4.20;;;3.87;;
12788;SDS011;6458;42.710;23.192;2023-05-24T10:28:53;4.20;;;3.90;;
12788;SDS011;6458;42.710;23.192;2023-05-24T10:31:21;4.57;;;4.23;;
12788;SDS011;6458;42.710;23.192;2023-05-24T10:33:49;4.37;;;3.93;;
12788;SDS011;6458;42.710;23.192;2023-05-24T10:36:16;4.10;;;3.80;;
12788;SDS011;6458;42.710;23.192;2023-05-24T10:38:45;3.87;;;3.67;;
12788;SDS011;6458;42.710;23.192;2023-05-24T10:41:11;3.50;;;3.30;;
12788;SDS011;6458;42.710;23.192;2023-05-24T10:43:38;4.07;;;3.70;;
12788;SDS011;6458;42.710;23.192;2023-05-24T10:46:08;5.07;;;4.10;;
12788;SDS011;6458;42.710;23.192;2023-05-24T10:48:39;4.17;;;3.80;;
12788;SDS011;6458;42.710;23.192;2023-05-24T10:53:50;4.30;;;3.87;;
12788;SDS011;6458;42.710;23.192;2023-05-24T10:56:17;3.77;;;3.57;;
12788;SDS011;6458;42.710;23.192;2023-05-24T10:58:57;3.70;;;3.40;;
12788;SDS011;6458;42.710;23.192;2023-05-24T11:01:25;4.10;;;3.90;;
12788;SDS011;6458;42.710;23.192;2023-05-24T11:03:52;3.80;;;3.60;;
12788;SDS011;6458;42.710;23.192;2023-05-24T11:06:20;4.00;;;3.70;;
12788;SDS011;6458;42.710;23.192;2023-05-24T11:09:07;4.23;;;4.03;;
12788;SDS011;6458;42.710;23.192;2023-05-24T11:11:35;6.57;;;4.37;;
12788;SDS011;6458;42.710;23.192;2023-05-24T11:14:04;4.40;;;4.00;;
12788;SDS011;6458;42.710;23.192;2023-05-24T11:16:33;5.73;;;3.80;;
12788;SDS011;6458;42.710;23.192;2023-05-24T11:19:05;4.37;;;4.07;;
12788;SDS011;6458;42.710;23.192;2023-05-24T11:21:36;4.60;;;4.20;;
12788;SDS011;6458;42.710;23.192;2023-05-24T11:24:03;4.57;;;4.10;;
12788;SDS011;6458;42.710;23.192;2023-05-24T11:26:31;3.83;;;3.73;;
12788;SDS011;6458;42.710;23.192;2023-05-24T11:28:58;3.57;;;3.40;;
12788;SDS011;6458;42.710;23.192;2023-05-24T11:31:26;4.27;;;3.97;;
12788;SDS011;6458;42.710;23.192;2023-05-24T11:33:54;3.80;;;3.50;;
12788;SDS011;6458;42.710;23.192;2023-05-24T11:36:20;3.93;;;3.67;;
12788;SDS011;6458;42.710;23.192;2023-05-24T11:38:47;4.13;;;3.73;;
12788;SDS011;6458;42.710;23.192;2023-05-24T11:41:15;4.30;;;4.00;;
12788;SDS011;6458;42.710;23.192;2023-05-24T11:43:43;4.20;;;3.90;;
12788;SDS011;6458;42.710;23.192;2023-05-24T11:46:10;4.30;;;3.90;;
12788;SDS011;6458;42.710;23.192;2023-05-24T11:48:36;4.10;;;3.80;;
12788;SDS011;6458;42.710;23.192;2023-05-24T11:51:04;7.17;;;4.10;;
12788;SDS011;6458;42.710;23.192;2023-05-24T11:53:31;4.63;;;4.23;;
12788;SDS011;6458;42.710;23.192;2023-05-24T11:55:58;4.27;;;3.90;;
12788;SDS011;6458;42.710;23.192;2023-05-24T11:58:27;4.53;;;4.13;;
12788;SDS011;6458;42.710;23.192;2023-05-24T12:00:54;4.10;;;3.90;;
12788;SDS011;6458;42.710;23.192;2023-05-24T12:03:21;8.03;;;4.53;;
12788;SDS011;6458;42.710;23.192;2023-05-24T12:05:48;4.20;;;4.00;;
12788;SDS011;6458;42.710;23.192;2023-05-24T12:08:16;4.07;;;3.77;;
12788;SDS011;6458;42.710;23.192;2023-05-24T12:10:44;4.63;;;4.27;;
12788;SDS011;6458;42.710;23.192;2023-05-24T12:13:18;4.23;;;3.93;;
12788;SDS011;6458;42.710;23.192;2023-05-24T12:15:45;4.03;;;3.73;;
12788;SDS011;6458;42.710;23.192;2023-05-24T12:18:17;4.60;;;4.20;;
12788;SDS011;6458;42.710;23.192;2023-05-24T12:20:44;4.13;;;3.83;;
12788;SDS011;6458;42.710;23.192;2023-05-24T12:23:11;3.93;;;3.70;;
12788;SDS011;6458;42.710;23.192;2023-05-24T12:25:39;4.20;;;3.90;;
12788;SDS011;6458;42.710;23.192;2023-05-24T12:28:05;6.53;;;4.20;;
12788;SDS011;6458;42.710;23.192;2023-05-24T12:30:32;4.20;;;4.00;;
12788;SDS011;6458;42.710;23.192;2023-05-24T12:32:58;4.73;;;4.30;;
12788;SDS011;6458;42.710;23.192;2023-05-24T12:35:25;5.80;;;4.07;;
12788;SDS011;6458;42.710;23.192;2023-05-24T12:37:56;4.90;;;4.33;;
12788;SDS011;6458;42.710;23.192;2023-05-24T12:40:24;4.40;;;4.00;;
12788;SDS011;6458;42.710;23.192;2023-05-24T12:42:53;4.33;;;4.13;;
12788;SDS011;6458;42.710;23.192;2023-05-24T12:45:21;4.50;;;4.10;;
12788;SDS011;6458;42.710;23.192;2023-05-24T12:47:49;5.20;;;3.97;;
12788;SDS011;6458;42.710;23.192;2023-05-24T12:50:16;4.20;;;3.90;;
12788;SDS011;6458;42.710;23.192;2023-05-24T12:52:43;3.97;;;3.70;;
12788;SDS011;6458;42.710;23.192;2023-05-24T12:55:11;4.30;;;4.10;;
12788;SDS011;6458;42.710;23.192;2023-05-24T12:57:37;4.70;;;4.30;;
12788;SDS011;6458;42.710;23.192;2023-05-24T13:00:07;4.20;;;3.90;;
12788;SDS011;6458;42.710;23.192;2023-05-24T13:02:34;4.43;;;4.13;;
12788;SDS011;6458;42.710;23.192;2023-05-24T13:05:01;4.33;;;4.03;;
12788;SDS011;6458;42.710;23.192;2023-05-24T13:07:28;4.53;;;4.23;;
12788;SDS011;6458;42.710;23.192;2023-05-24T13:09:55;4.17;;;3.97;;
12788;SDS011;6458;42.710;23.192;2023-05-24T13:12:22;4.33;;;4.03;;
12788;SDS011;6458;42.710;23.192;2023-05-24T13:14:49;4.70;;;4.40;;
12788;SDS011;6458;42.710;23.192;2023-05-24T13:17:17;4.63;;;4.33;;
12788;SDS011;6458;42.710;23.192;2023-05-24T13:19:44;4.50;;;4.10;;
12788;SDS011;6458;42.710;23.192;2023-05-24T13:22:11;5.10;;;4.53;;
12788;SDS011;6458;42.710;23.192;2023-05-24T13:24:37;4.60;;;4.00;;
12788;SDS011;6458;42.710;23.192;2023-05-24T13:27:04;5.00;;;3.87;;
12788;SDS011;6458;42.710;23.192;2023-05-24T13:29:31;3.77;;;3.57;;
12788;SDS011;6458;42.710;23.192;2023-05-24T13:31:58;4.17;;;3.97;;
12788;SDS011;6458;42.710;23.192;2023-05-24T13:34:26;4.30;;;4.00;;
12788;SDS011;6458;42.710;23.192;2023-05-24T13:36:53;4.30;;;4.10;;
12788;SDS011;6458;42.710;23.192;2023-05-24T13:39:20;4.27;;;3.97;;
12788;SDS011;6458;42.710;23.192;2023-05-24T13:41:47;4.27;;;4.00;;
12788;SDS011;6458;42.710;23.192;2023-05-24T13:44:14;3.77;;;3.57;;
12788;SDS011;6458;42.710;23.192;2023-05-24T13:46:41;4.07;;;3.77;;
12788;SDS011;6458;42.710;23.192;2023-05-24T13:49:08;4.30;;;4.10;;
12788;SDS011;6458;42.710;23.192;2023-05-24T13:51:36;4.23;;;3.97;;
12788;SDS011;6458;42.710;23.192;2023-05-24T13:54:03;4.83;;;4.30;;
12788;SDS011;6458;42.710;23.192;2023-05-24T13:56:31;4.20;;;4.00;;
12788;SDS011;6458;42.710;23.192;2023-05-24T13:58:58;4.30;;;4.00;;
12788;SDS011;6458;42.710;23.192;2023-05-24T14:01:25;4.57;;;4.30;;
12788;SDS011;6458;42.710;23.192;2023-05-24T14:03:51;4.57;;;4.37;;
12788;SDS011;6458;42.710;23.192;2023-05-24T14:06:18;4.67;;;4.37;;
12788;SDS011;6458;42.710;23.192;2023-05-24T14:08:47;4.43;;;4.13;;
12788;SDS011;6458;42.710;23.192;2023-05-24T14:11:14;5.27;;;4.67;;
12788;SDS011;6458;42.710;23.192;2023-05-24T14:13:40;4.40;;;4.10;;
12788;SDS011;6458;42.710;23.192;2023-05-24T14:16:07;4.97;;;4.50;;
12788;SDS011;6458;42.710;23.192;2023-05-24T14:18:34;4.50;;;4.20;;
12788;SDS011;6458;42.710;23.192;2023-05-24T14:21:01;4.17;;;3.87;;
12788;SDS011;6458;42.710;23.192;2023-05-24T14:23:30;3.97;;;3.73;;
12788;SDS011;6458;42.710;23.192;2023-05-24T14:25:59;4.57;;;4.17;;
12788;SDS011;6458;42.710;23.192;2023-05-24T14:28:25;4.13;;;3.77;;
12788;SDS011;6458;42.710;23.192;2023-05-24T14:30:52;4.20;;;3.90;;
12788;SDS011;6458;42.710;23.192;2023-05-24T14:33:18;4.40;;;4.10;;
12788;SDS011;6458;42.710;23.192;2023-05-24T14:35:45;4.23;;;4.03;;
12788;SDS011;6458;42.710;23.192;2023-05-24T14:38:12;4.10;;;3.90;;
12788;SDS011;6458;42.710;23.192;2023-05-24T14:40:38;6.37;;;4.57;;
12788;SDS011;6458;42.710;23.192;2023-05-24T14:43:07;4.60;;;4.40;;
12788;SDS011;6458;42.710;23.192;2023-05-24T14:45:34;4.33;;;4.03;;
12788;SDS011;6458;42.710;23.192;2023-05-24T14:48:02;4.00;;;3.80;;
12788;SDS011;6458;42.710;23.192;2023-05-24T14:50:29;3.40;;;3.20;;
12788;SDS011;6458;42.710;23.192;2023-05-24T14:52:55;3.90;;;3.70;;
12788;SDS011;6458;42.710;23.192;2023-05-24T14:55:23;4.13;;;3.80;;